PWSweather.com
Personal Weather Stations
Station Observations
VAB41
Cheltenham Square, Virginia Beach, VA 23454

Cheltenham SquareVirginia Beach, VA 23454

Lat: 36.832882, Lon: -76.054038

Elevation: 12

Station Type: Ambient WS 2080

Latest ConditionsUpdated 9:30:00 PM EDT Saturday, Apr 19, 2014
Currently Today's Max Today's Min Today's Average
Temperature 47.8°F8.8°C 49.8°F9.9°C 44.6°F7.0°C 46.9°F8.3°C
Dew Point 42.9°F6.1°C 45.5°F7.5°C 41.0°F5.0°C 43.7°F6.5°C
Winds 1.6 mph NNW2.6 kmh NNW 3.8 mph NNE6.1 kmh NNE - 0.9 mph 1.4 kmh
Wind Gusts 3.1 mph5.0 kmh 11.4 mph18.3 kmh - -
Humidity 83% 97% 75% 89%
Pressure 30.29 in1025.7 mb 30.40 in1029.5 mb 30.26 in1024.7 mb -
Precipitation - 0.09 in2.3 mm - -
Hour Temp Dew Point Humidity Winds Wind Gusts Pressure Precip Precip Rate Daily Precip Total
09:30 PM 47.8°F8.8°C 42.9°F6.1°C 83% 1.6 mph NNW2.6 kmh NNW 3.1 mph5.0 kmh 30.29 in1025.7 mb 0.00 in0.0 mm 0.00 in/hr0.0 mm/hr 0.09 in2.3 mm
09:25 PM 48.0°F8.9°C 43.1°F6.2°C 83% 1.6 mph ENE2.6 kmh ENE 3.1 mph5.0 kmh 30.29 in1025.7 mb 0.00 in0.0 mm 0.00 in/hr0.0 mm/hr 0.09 in2.3 mm
09:20 PM 48.0°F8.9°C 43.1°F6.2°C 83% 1.6 mph ENE2.6 kmh ENE 5.4 mph8.7 kmh 30.29 in1025.7 mb 0.00 in0.0 mm 0.00 in/hr0.0 mm/hr 0.09 in2.3 mm
09:15 PM 48.0°F8.9°C 43.1°F6.2°C 83% Calm Calm 5.4 mph8.7 kmh 30.29 in1025.7 mb 0.00 in0.0 mm 0.00 in/hr0.0 mm/hr 0.09 in2.3 mm
09:10 PM 48.0°F8.9°C 43.1°F6.2°C 83% 0.7 mph NE1.1 kmh NE 4.5 mph7.2 kmh 30.29 in1025.7 mb 0.00 in0.0 mm 0.00 in/hr0.0 mm/hr 0.09 in2.3 mm
09:05 PM 48.0°F8.9°C 43.1°F6.2°C 83% 2.2 mph NE3.5 kmh NE 4.5 mph7.2 kmh 30.28 in1025.4 mb 0.00 in0.0 mm 0.00 in/hr0.0 mm/hr 0.09 in2.3 mm
09:00 PM 48.0°F8.9°C 42.8°F6.0°C 82% 1.6 mph NE2.6 kmh NE 3.1 mph5.0 kmh 30.27 in1025.1 mb 0.00 in0.0 mm 0.00 in/hr0.0 mm/hr 0.09 in2.3 mm
08:55 PM 48.0°F8.9°C 42.8°F6.0°C 82% 1.6 mph NE2.6 kmh NE 3.1 mph5.0 kmh 30.27 in1025.1 mb 0.00 in0.0 mm 0.00 in/hr0.0 mm/hr 0.09 in2.3 mm
08:50 PM 48.0°F8.9°C 42.8°F6.0°C 82% Calm Calm 3.8 mph6.1 kmh 30.27 in1025.1 mb 0.00 in0.0 mm 0.00 in/hr0.0 mm/hr 0.09 in2.3 mm
08:45 PM 48.0°F8.9°C 42.8°F6.0°C 82% 0.7 mph NNE1.1 kmh NNE 4.5 mph7.2 kmh 30.28 in1025.4 mb 0.00 in0.0 mm 0.00 in/hr0.0 mm/hr 0.09 in2.3 mm
08:40 PM 48.2°F9.0°C 42.6°F5.9°C 81% Calm Calm 4.5 mph7.2 kmh 30.27 in1025.1 mb 0.00 in0.0 mm 0.00 in/hr0.0 mm/hr 0.09 in2.3 mm
08:35 PM 48.2°F9.0°C 42.6°F5.9°C 81% 2.2 mph N3.5 kmh N 6.0 mph9.7 kmh 30.27 in1025.1 mb 0.00 in0.0 mm 0.00 in/hr0.0 mm/hr 0.09 in2.3 mm
08:30 PM 48.2°F9.0°C 42.6°F5.9°C 81% 2.2 mph NNE3.5 kmh NNE 6.0 mph9.7 kmh 30.27 in1025.1 mb 0.00 in0.0 mm 0.00 in/hr0.0 mm/hr 0.09 in2.3 mm
08:25 PM 48.2°F9.0°C 42.6°F5.9°C 81% Calm Calm 3.1 mph5.0 kmh 30.27 in1025.1 mb 0.00 in0.0 mm 0.00 in/hr0.0 mm/hr 0.09 in2.3 mm
08:20 PM 48.2°F9.0°C 42.6°F5.9°C 81% 0.7 mph N1.1 kmh N 3.8 mph6.1 kmh 30.26 in1024.7 mb 0.00 in0.0 mm 0.00 in/hr0.0 mm/hr 0.09 in2.3 mm
08:15 PM 48.2°F9.0°C 42.6°F5.9°C 81% Calm Calm 3.8 mph6.1 kmh 30.26 in1024.7 mb 0.00 in0.0 mm 0.00 in/hr0.0 mm/hr 0.09 in2.3 mm
08:10 PM 48.2°F9.0°C 42.6°F5.9°C 81% 0.7 mph NE1.1 kmh NE 3.1 mph5.0 kmh 30.27 in1025.1 mb 0.00 in0.0 mm 0.00 in/hr0.0 mm/hr 0.09 in2.3 mm
08:05 PM 48.2°F9.0°C 42.3°F5.7°C 80% 1.6 mph NNE2.6 kmh NNE 3.1 mph5.0 kmh 30.26 in1024.7 mb 0.00 in0.0 mm 0.00 in/hr0.0 mm/hr 0.09 in2.3 mm
08:00 PM 48.2°F9.0°C 42.3°F5.7°C 80% 0.7 mph N1.1 kmh N 2.2 mph3.5 kmh 30.27 in1025.1 mb 0.00 in0.0 mm 0.00 in/hr0.0 mm/hr 0.09 in2.3 mm
07:55 PM 48.2°F9.0°C 42.0°F5.6°C 79% Calm Calm 2.2 mph3.5 kmh 30.26 in1024.7 mb 0.00 in0.0 mm 0.00 in/hr0.0 mm/hr 0.09 in2.3 mm
07:50 PM 48.2°F9.0°C 42.0°F5.6°C 79% 0.7 mph NNE1.1 kmh NNE 2.2 mph3.5 kmh 30.27 in1025.1 mb 0.00 in0.0 mm 0.00 in/hr0.0 mm/hr 0.09 in2.3 mm
07:45 PM 48.2°F9.0°C 42.0°F5.6°C 79% Calm Calm 2.2 mph3.5 kmh 30.27 in1025.1 mb 0.00 in0.0 mm 0.00 in/hr0.0 mm/hr 0.09 in2.3 mm
07:40 PM 48.2°F9.0°C 41.7°F5.4°C 78% 1.6 mph ENE2.6 kmh ENE 4.5 mph7.2 kmh 30.27 in1025.1 mb 0.00 in0.0 mm 0.00 in/hr0.0 mm/hr 0.09 in2.3 mm
07:35 PM 48.2°F9.0°C 41.7°F5.4°C 78% 0.7 mph NE1.1 kmh NE 4.5 mph7.2 kmh 30.27 in1025.1 mb 0.00 in0.0 mm 0.00 in/hr0.0 mm/hr 0.09 in2.3 mm
07:30 PM 48.2°F9.0°C 41.7°F5.4°C 78% 0.7 mph NE1.1 kmh NE 3.1 mph5.0 kmh 30.28 in1025.4 mb 0.00 in0.0 mm 0.00 in/hr0.0 mm/hr 0.09 in2.3 mm
07:25 PM 48.2°F9.0°C 41.7°F5.4°C 78% Calm Calm 3.1 mph5.0 kmh 30.28 in1025.4 mb 0.00 in0.0 mm 0.00 in/hr0.0 mm/hr 0.09 in2.3 mm
07:20 PM 48.2°F9.0°C 41.7°F5.4°C 78% 0.7 mph N1.1 kmh N 3.1 mph5.0 kmh 30.28 in1025.4 mb 0.00 in0.0 mm 0.00 in/hr0.0 mm/hr 0.09 in2.3 mm
07:15 PM 48.2°F9.0°C 41.7°F5.4°C 78% 0.7 mph NNE1.1 kmh NNE 3.1 mph5.0 kmh 30.28 in1025.4 mb 0.00 in0.0 mm 0.00 in/hr0.0 mm/hr 0.09 in2.3 mm
07:10 PM 48.2°F9.0°C 41.3°F5.2°C 77% 1.6 mph NNE2.6 kmh NNE 2.2 mph3.5 kmh 30.28 in1025.4 mb 0.00 in0.0 mm 0.00 in/hr0.0 mm/hr 0.09 in2.3 mm
07:05 PM 48.2°F9.0°C 41.3°F5.2°C 77% 0.7 mph N1.1 kmh N 4.5 mph7.2 kmh 30.28 in1025.4 mb 0.00 in0.0 mm 0.00 in/hr0.0 mm/hr 0.09 in2.3 mm
07:00 PM 48.2°F9.0°C 41.3°F5.2°C 77% Calm Calm 5.4 mph8.7 kmh 30.28 in1025.4 mb 0.00 in0.0 mm 0.00 in/hr0.0 mm/hr 0.09 in2.3 mm
06:55 PM 48.2°F9.0°C 41.0°F5.0°C 76% Calm Calm 5.4 mph8.7 kmh 30.29 in1025.7 mb 0.00 in0.0 mm 0.00 in/hr0.0 mm/hr 0.09 in2.3 mm
06:50 PM 48.6°F9.2°C 41.3°F5.2°C 76% 0.7 mph N1.1 kmh N 3.8 mph6.1 kmh 30.28 in1025.4 mb 0.00 in0.0 mm 0.00 in/hr0.0 mm/hr 0.09 in2.3 mm
06:45 PM 48.6°F9.2°C 41.3°F5.2°C 76% 0.7 mph N1.1 kmh N 3.1 mph5.0 kmh 30.28 in1025.4 mb 0.00 in0.0 mm 0.00 in/hr0.0 mm/hr 0.09 in2.3 mm
06:40 PM 48.6°F9.2°C 41.3°F5.2°C 76% Calm Calm 3.8 mph6.1 kmh 30.28 in1025.4 mb 0.00 in0.0 mm 0.00 in/hr0.0 mm/hr 0.09 in2.3 mm
06:35 PM 48.6°F9.2°C 41.3°F5.2°C 76% 0.7 mph N1.1 kmh N 3.8 mph6.1 kmh 30.28 in1025.4 mb 0.00 in0.0 mm 0.00 in/hr0.0 mm/hr 0.09 in2.3 mm
06:30 PM 48.7°F9.3°C 41.5°F5.3°C 76% 1.6 mph N2.6 kmh N 3.1 mph5.0 kmh 30.28 in1025.4 mb 0.00 in0.0 mm 0.00 in/hr0.0 mm/hr 0.09 in2.3 mm
06:25 PM 48.7°F9.3°C 41.5°F5.3°C 76% 0.7 mph N1.1 kmh N 4.5 mph7.2 kmh 30.28 in1025.4 mb 0.00 in0.0 mm 0.00 in/hr0.0 mm/hr 0.09 in2.3 mm
06:20 PM 48.7°F9.3°C 41.5°F5.3°C 76% 0.7 mph NNE1.1 kmh NNE 8.3 mph13.4 kmh 30.28 in1025.4 mb 0.00 in0.0 mm 0.00 in/hr0.0 mm/hr 0.09 in2.3 mm
06:15 PM 48.7°F9.3°C 41.5°F5.3°C 76% 1.6 mph NNE2.6 kmh NNE 8.3 mph13.4 kmh 30.28 in1025.4 mb 0.00 in0.0 mm 0.00 in/hr0.0 mm/hr 0.09 in2.3 mm
06:10 PM 48.9°F9.4°C 41.7°F5.4°C 76% 0.7 mph N1.1 kmh N 3.8 mph6.1 kmh 30.28 in1025.4 mb 0.00 in0.0 mm 0.00 in/hr0.0 mm/hr 0.09 in2.3 mm
06:05 PM 49.1°F9.5°C 42.2°F5.7°C 77% 1.6 mph N2.6 kmh N 3.8 mph6.1 kmh 30.28 in1025.4 mb 0.00 in0.0 mm 0.00 in/hr0.0 mm/hr 0.09 in2.3 mm
06:00 PM 49.1°F9.5°C 42.2°F5.7°C 77% 0.7 mph N1.1 kmh N 3.1 mph5.0 kmh 30.28 in1025.4 mb 0.00 in0.0 mm 0.00 in/hr0.0 mm/hr 0.09 in2.3 mm
05:55 PM 49.1°F9.5°C 42.2°F5.7°C 77% Calm Calm 3.1 mph5.0 kmh 30.28 in1025.4 mb 0.00 in0.0 mm 0.00 in/hr0.0 mm/hr 0.09 in2.3 mm
05:50 PM 49.1°F9.5°C 42.2°F5.7°C 77% 0.7 mph NNE1.1 kmh NNE 3.8 mph6.1 kmh 30.27 in1025.1 mb 0.00 in0.0 mm 0.00 in/hr0.0 mm/hr 0.09 in2.3 mm
05:45 PM 49.3°F9.6°C 42.4°F5.8°C 77% 1.6 mph NE2.6 kmh NE 3.8 mph6.1 kmh 30.27 in1025.1 mb 0.00 in0.0 mm 0.00 in/hr0.0 mm/hr 0.09 in2.3 mm
05:40 PM 49.3°F9.6°C 42.4°F5.8°C 77% 0.7 mph NE1.1 kmh NE 5.4 mph8.7 kmh 30.27 in1025.1 mb 0.00 in0.0 mm 0.00 in/hr0.0 mm/hr 0.09 in2.3 mm
05:35 PM 49.3°F9.6°C 42.4°F5.8°C 77% 1.6 mph NE2.6 kmh NE 5.4 mph8.7 kmh 30.27 in1025.1 mb 0.00 in0.0 mm 0.00 in/hr0.0 mm/hr 0.09 in2.3 mm
05:30 PM 49.3°F9.6°C 42.7°F5.9°C 78% 0.7 mph NNE1.1 kmh NNE 3.8 mph6.1 kmh 30.27 in1025.1 mb 0.00 in0.0 mm 0.00 in/hr0.0 mm/hr 0.09 in2.3 mm
05:25 PM 49.3°F9.6°C 42.4°F5.8°C 77% Calm Calm 4.5 mph7.2 kmh 30.26 in1024.7 mb 0.00 in0.0 mm 0.00 in/hr0.0 mm/hr 0.09 in2.3 mm
05:20 PM 49.5°F9.7°C 42.2°F5.7°C 76% 2.2 mph N3.5 kmh N 4.5 mph7.2 kmh 30.26 in1024.7 mb 0.00 in0.0 mm 0.00 in/hr0.0 mm/hr 0.09 in2.3 mm
05:15 PM 49.6°F9.8°C 42.7°F5.9°C 77% 1.6 mph N2.6 kmh N 4.5 mph7.2 kmh 30.26 in1024.7 mb 0.00 in0.0 mm 0.00 in/hr0.0 mm/hr 0.09 in2.3 mm
05:10 PM 49.6°F9.8°C 42.4°F5.8°C 76% Calm Calm 4.5 mph7.2 kmh 30.26 in1024.7 mb 0.00 in0.0 mm 0.00 in/hr0.0 mm/hr 0.09 in2.3 mm
05:05 PM 49.6°F9.8°C 42.4°F5.8°C 76% 1.6 mph N2.6 kmh N 3.8 mph6.1 kmh 30.26 in1024.7 mb 0.00 in0.0 mm 0.00 in/hr0.0 mm/hr 0.09 in2.3 mm
05:00 PM 49.8°F9.9°C 42.2°F5.7°C 75% 0.7 mph NNE1.1 kmh NNE 3.8 mph6.1 kmh 30.26 in1024.7 mb 0.00 in0.0 mm 0.00 in/hr0.0 mm/hr 0.09 in2.3 mm
04:55 PM 49.8°F9.9°C 42.6°F5.9°C 76% 0.7 mph NNE1.1 kmh NNE 4.5 mph7.2 kmh 30.27 in1025.1 mb 0.00 in0.0 mm 0.00 in/hr0.0 mm/hr 0.09 in2.3 mm
04:50 PM 49.6°F9.8°C 42.7°F5.9°C 77% 1.6 mph NNE2.6 kmh NNE 5.4 mph8.7 kmh 30.27 in1025.1 mb 0.00 in0.0 mm 0.00 in/hr0.0 mm/hr 0.09 in2.3 mm
04:45 PM 49.5°F9.7°C 42.6°F5.9°C 77% 0.7 mph NNE1.1 kmh NNE 5.4 mph8.7 kmh 30.27 in1025.1 mb 0.00 in0.0 mm 0.00 in/hr0.0 mm/hr 0.09 in2.3 mm
04:40 PM 49.5°F9.7°C 43.2°F6.2°C 79% 0.7 mph NNE1.1 kmh NNE 3.8 mph6.1 kmh 30.27 in1025.1 mb 0.00 in0.0 mm 0.00 in/hr0.0 mm/hr 0.09 in2.3 mm
04:35 PM 49.3°F9.6°C 43.1°F6.2°C 79% 1.6 mph NNE2.6 kmh NNE 3.8 mph6.1 kmh 30.27 in1025.1 mb 0.00 in0.0 mm 0.00 in/hr0.0 mm/hr 0.09 in2.3 mm
04:30 PM 49.1°F9.5°C 43.2°F6.2°C 80% 1.6 mph NNE2.6 kmh NNE 6.9 mph11.1 kmh 30.27 in1025.1 mb 0.00 in0.0 mm 0.00 in/hr0.0 mm/hr 0.09 in2.3 mm
04:25 PM 49.1°F9.5°C 43.5°F6.4°C 81% 0.7 mph NNE1.1 kmh NNE 6.9 mph11.1 kmh 30.27 in1025.1 mb 0.00 in0.0 mm 0.00 in/hr0.0 mm/hr 0.09 in2.3 mm
04:20 PM 48.9°F9.4°C 43.4°F6.3°C 81% 0.7 mph N1.1 kmh N 4.5 mph7.2 kmh 30.27 in1025.1 mb 0.00 in0.0 mm 0.00 in/hr0.0 mm/hr 0.09 in2.3 mm
04:15 PM 48.7°F9.3°C 43.2°F6.2°C 81% 1.6 mph N2.6 kmh N 4.5 mph7.2 kmh 30.27 in1025.1 mb 0.00 in0.0 mm 0.00 in/hr0.0 mm/hr 0.09 in2.3 mm
04:10 PM 48.7°F9.3°C 43.5°F6.4°C 82% 3.1 mph NNE5.0 kmh NNE 5.4 mph8.7 kmh 30.27 in1025.1 mb 0.00 in0.0 mm 0.00 in/hr0.0 mm/hr 0.09 in2.3 mm
04:05 PM 48.6°F9.2°C 44.0°F6.7°C 84% Calm Calm 5.4 mph8.7 kmh 30.27 in1025.1 mb 0.00 in0.0 mm 0.00 in/hr0.0 mm/hr 0.09 in2.3 mm
04:00 PM 48.6°F9.2°C 44.0°F6.7°C 84% 1.6 mph NE2.6 kmh NE 4.5 mph7.2 kmh 30.27 in1025.1 mb 0.00 in0.0 mm 0.00 in/hr0.0 mm/hr 0.09 in2.3 mm
03:55 PM 48.2°F9.0°C 43.6°F6.4°C 84% 0.7 mph NNE1.1 kmh NNE 3.8 mph6.1 kmh 30.27 in1025.1 mb 0.00 in0.0 mm 0.00 in/hr0.0 mm/hr 0.09 in2.3 mm
03:50 PM 48.2°F9.0°C 43.6°F6.4°C 84% 0.7 mph NNE1.1 kmh NNE 3.8 mph6.1 kmh 30.27 in1025.1 mb 0.01 in0.3 mm 0.00 in/hr0.0 mm/hr 0.09 in2.3 mm
03:45 PM 48.2°F9.0°C 43.6°F6.4°C 84% 1.6 mph NNE2.6 kmh NNE 4.5 mph7.2 kmh 30.27 in1025.1 mb 0.01 in0.3 mm 0.00 in/hr0.0 mm/hr 0.09 in2.3 mm
03:40 PM 48.2°F9.0°C 43.6°F6.4°C 84% Calm Calm 4.5 mph7.2 kmh 30.28 in1025.4 mb 0.01 in0.3 mm 0.00 in/hr0.0 mm/hr 0.09 in2.3 mm
03:35 PM 48.2°F9.0°C 43.9°F6.6°C 85% 0.7 mph N1.1 kmh N 3.8 mph6.1 kmh 30.27 in1025.1 mb 0.01 in0.3 mm 0.00 in/hr0.0 mm/hr 0.09 in2.3 mm
03:30 PM 48.2°F9.0°C 43.9°F6.6°C 85% 0.7 mph N1.1 kmh N 3.1 mph5.0 kmh 30.28 in1025.4 mb 0.01 in0.3 mm 0.00 in/hr0.0 mm/hr 0.09 in2.3 mm
03:25 PM 48.2°F9.0°C 44.2°F6.8°C 86% 1.6 mph N2.6 kmh N 3.1 mph5.0 kmh 30.28 in1025.4 mb 0.01 in0.3 mm 0.00 in/hr0.0 mm/hr 0.09 in2.3 mm
03:20 PM 48.2°F9.0°C 44.5°F6.9°C 87% 0.7 mph NNE1.1 kmh NNE 3.1 mph5.0 kmh 30.28 in1025.4 mb 0.01 in0.3 mm 0.00 in/hr0.0 mm/hr 0.09 in2.3 mm
03:15 PM 48.2°F9.0°C 44.5°F6.9°C 87% Calm Calm 3.1 mph5.0 kmh 30.28 in1025.4 mb 0.01 in0.3 mm 0.00 in/hr0.0 mm/hr 0.09 in2.3 mm
03:10 PM 48.2°F9.0°C 44.5°F6.9°C 87% 1.6 mph NE2.6 kmh NE 3.1 mph5.0 kmh 30.28 in1025.4 mb 0.01 in0.3 mm 0.00 in/hr0.0 mm/hr 0.09 in2.3 mm
03:05 PM 48.2°F9.0°C 44.8°F7.1°C 88% 1.6 mph NNE2.6 kmh NNE 3.1 mph5.0 kmh 30.29 in1025.7 mb 0.01 in0.3 mm 0.00 in/hr0.0 mm/hr 0.09 in2.3 mm
03:00 PM 48.2°F9.0°C 44.8°F7.1°C 88% 1.6 mph NE2.6 kmh NE 2.2 mph3.5 kmh 30.30 in1026.1 mb 0.01 in0.3 mm 0.01 in/hr0.3 mm/hr 0.09 in2.3 mm
02:55 PM 48.2°F9.0°C 44.8°F7.1°C 88% Calm Calm 3.8 mph6.1 kmh 30.30 in1026.1 mb 0.00 in0.0 mm 0.00 in/hr0.0 mm/hr 0.08 in2.0 mm
02:50 PM 48.2°F9.0°C 44.8°F7.1°C 88% Calm Calm 3.8 mph6.1 kmh 30.31 in1026.4 mb 0.00 in0.0 mm 0.00 in/hr0.0 mm/hr 0.08 in2.0 mm
02:45 PM 48.2°F9.0°C 45.1°F7.3°C 89% Calm Calm 3.8 mph6.1 kmh 30.30 in1026.1 mb 0.01 in0.3 mm 0.00 in/hr0.0 mm/hr 0.08 in2.0 mm
02:40 PM 48.2°F9.0°C 44.8°F7.1°C 88% 1.6 mph N2.6 kmh N 3.8 mph6.1 kmh 30.31 in1026.4 mb 0.01 in0.3 mm 0.00 in/hr0.0 mm/hr 0.08 in2.0 mm
02:35 PM 48.2°F9.0°C 45.1°F7.3°C 89% 1.6 mph NNE2.6 kmh NNE 3.1 mph5.0 kmh 30.31 in1026.4 mb 0.01 in0.3 mm 0.00 in/hr0.0 mm/hr 0.08 in2.0 mm
02:30 PM 48.2°F9.0°C 45.1°F7.3°C 89% 0.7 mph NNE1.1 kmh NNE 5.4 mph8.7 kmh 30.31 in1026.4 mb 0.01 in0.3 mm 0.00 in/hr0.0 mm/hr 0.08 in2.0 mm
02:25 PM 48.2°F9.0°C 45.4°F7.4°C 90% Calm Calm 5.4 mph8.7 kmh 30.31 in1026.4 mb 0.01 in0.3 mm 0.00 in/hr0.0 mm/hr 0.08 in2.0 mm
02:20 PM 48.0°F8.9°C 45.5°F7.5°C 91% Calm Calm 4.5 mph7.2 kmh 30.31 in1026.4 mb 0.01 in0.3 mm 0.00 in/hr0.0 mm/hr 0.08 in2.0 mm
02:15 PM 48.0°F8.9°C 45.2°F7.3°C 90% 0.7 mph NNE1.1 kmh NNE 4.5 mph7.2 kmh 30.31 in1026.4 mb 0.01 in0.3 mm 0.00 in/hr0.0 mm/hr 0.08 in2.0 mm
02:10 PM 47.8°F8.8°C 45.1°F7.3°C 90% 0.7 mph NNE1.1 kmh NNE 4.5 mph7.2 kmh 30.31 in1026.4 mb 0.01 in0.3 mm 0.00 in/hr0.0 mm/hr 0.08 in2.0 mm
02:05 PM 47.8°F8.8°C 45.1°F7.3°C 90% Calm Calm 4.5 mph7.2 kmh 30.31 in1026.4 mb 0.01 in0.3 mm 0.00 in/hr0.0 mm/hr 0.08 in2.0 mm
02:00 PM 47.8°F8.8°C 45.1°F7.3°C 90% 1.6 mph N2.6 kmh N 3.1 mph5.0 kmh 30.31 in1026.4 mb 0.01 in0.3 mm 0.00 in/hr0.0 mm/hr 0.08 in2.0 mm
01:55 PM 48.0°F8.9°C 45.2°F7.3°C 90% 2.2 mph N3.5 kmh N 3.1 mph5.0 kmh 30.31 in1026.4 mb 0.02 in0.5 mm 0.00 in/hr0.0 mm/hr 0.08 in2.0 mm
01:50 PM 47.8°F8.8°C 45.1°F7.3°C 90% 0.7 mph NNE1.1 kmh NNE 4.5 mph7.2 kmh 30.31 in1026.4 mb 0.02 in0.5 mm 0.12 in/hr3.0 mm/hr 0.08 in2.0 mm
01:45 PM 47.8°F8.8°C 45.3°F7.4°C 91% 1.6 mph NNE2.6 kmh NNE 4.5 mph7.2 kmh 30.31 in1026.4 mb 0.01 in0.3 mm 0.00 in/hr0.0 mm/hr 0.07 in1.8 mm
01:40 PM 47.8°F8.8°C 45.1°F7.3°C 90% 0.7 mph N1.1 kmh N 3.8 mph6.1 kmh 30.31 in1026.4 mb 0.01 in0.3 mm 0.00 in/hr0.0 mm/hr 0.07 in1.8 mm
01:35 PM 48.0°F8.9°C 45.5°F7.5°C 91% Calm Calm 3.1 mph5.0 kmh 30.32 in1026.8 mb 0.01 in0.3 mm 0.00 in/hr0.0 mm/hr 0.07 in1.8 mm
01:30 PM 47.8°F8.8°C 45.1°F7.3°C 90% Calm Calm 6.0 mph9.7 kmh 30.31 in1026.4 mb 0.01 in0.3 mm 0.00 in/hr0.0 mm/hr 0.07 in1.8 mm
01:25 PM 48.0°F8.9°C 45.2°F7.3°C 90% 1.6 mph NNE2.6 kmh NNE 6.0 mph9.7 kmh 30.32 in1026.8 mb 0.01 in0.3 mm 0.00 in/hr0.0 mm/hr 0.07 in1.8 mm
01:20 PM 48.2°F9.0°C 45.1°F7.3°C 89% 2.2 mph N3.5 kmh N 4.5 mph7.2 kmh 30.32 in1026.8 mb 0.01 in0.3 mm 0.00 in/hr0.0 mm/hr 0.07 in1.8 mm
01:15 PM 48.2°F9.0°C 45.1°F7.3°C 89% 0.7 mph N1.1 kmh N 3.8 mph6.1 kmh 30.32 in1026.8 mb 0.01 in0.3 mm 0.00 in/hr0.0 mm/hr 0.07 in1.8 mm
01:10 PM 48.2°F9.0°C 44.8°F7.1°C 88% 1.6 mph N2.6 kmh N 3.8 mph6.1 kmh 30.32 in1026.8 mb 0.01 in0.3 mm 0.00 in/hr0.0 mm/hr 0.07 in1.8 mm
01:05 PM 48.2°F9.0°C 44.5°F6.9°C 87% 0.7 mph N1.1 kmh N 6.0 mph9.7 kmh 30.33 in1027.1 mb 0.01 in0.3 mm 0.00 in/hr0.0 mm/hr 0.07 in1.8 mm
01:00 PM 48.2°F9.0°C 44.2°F6.8°C 86% 1.6 mph NNE2.6 kmh NNE 6.0 mph9.7 kmh 30.32 in1026.8 mb 0.02 in0.5 mm 0.01 in/hr0.3 mm/hr 0.07 in1.8 mm
12:55 PM 48.2°F9.0°C 44.5°F6.9°C 87% 3.1 mph N5.0 kmh N 6.0 mph9.7 kmh 30.33 in1027.1 mb 0.01 in0.3 mm 0.00 in/hr0.0 mm/hr 0.06 in1.5 mm
12:50 PM 48.2°F9.0°C 44.5°F6.9°C 87% 1.6 mph N2.6 kmh N 4.5 mph7.2 kmh 30.33 in1027.1 mb 0.01 in0.3 mm 0.00 in/hr0.0 mm/hr 0.06 in1.5 mm
12:45 PM 48.2°F9.0°C 44.2°F6.8°C 86% 0.7 mph N1.1 kmh N 4.5 mph7.2 kmh 30.33 in1027.1 mb 0.01 in0.3 mm 0.00 in/hr0.0 mm/hr 0.06 in1.5 mm
12:40 PM 48.2°F9.0°C 44.2°F6.8°C 86% 2.2 mph NNE3.5 kmh NNE 3.8 mph6.1 kmh 30.33 in1027.1 mb 0.01 in0.3 mm 0.00 in/hr0.0 mm/hr 0.06 in1.5 mm
12:35 PM 48.0°F8.9°C 44.3°F6.8°C 87% 0.7 mph N1.1 kmh N 3.8 mph6.1 kmh 30.33 in1027.1 mb 0.01 in0.3 mm 0.00 in/hr0.0 mm/hr 0.06 in1.5 mm
12:30 PM 48.0°F8.9°C 44.3°F6.8°C 87% 0.7 mph NNE1.1 kmh NNE 3.1 mph5.0 kmh 30.33 in1027.1 mb 0.01 in0.3 mm 0.00 in/hr0.0 mm/hr 0.06 in1.5 mm
12:25 PM 48.0°F8.9°C 44.3°F6.8°C 87% 0.7 mph NE1.1 kmh NE 4.5 mph7.2 kmh 30.33 in1027.1 mb 0.01 in0.3 mm 0.00 in/hr0.0 mm/hr 0.06 in1.5 mm
12:20 PM 48.0°F8.9°C 44.3°F6.8°C 87% Calm Calm 4.5 mph7.2 kmh 30.33 in1027.1 mb 0.01 in0.3 mm 0.00 in/hr0.0 mm/hr 0.06 in1.5 mm
12:15 PM 48.0°F8.9°C 44.6°F7.0°C 88% Calm Calm 4.5 mph7.2 kmh 30.33 in1027.1 mb 0.01 in0.3 mm 0.00 in/hr0.0 mm/hr 0.06 in1.5 mm
12:10 PM 48.0°F8.9°C 44.9°F7.2°C 89% 0.7 mph N1.1 kmh N 3.8 mph6.1 kmh 30.33 in1027.1 mb 0.01 in0.3 mm 0.00 in/hr0.0 mm/hr 0.06 in1.5 mm
12:05 PM 48.0°F8.9°C 44.6°F7.0°C 88% Calm Calm 3.8 mph6.1 kmh 30.33 in1027.1 mb 0.01 in0.3 mm 0.12 in/hr3.0 mm/hr 0.06 in1.5 mm
12:00 PM 48.0°F8.9°C 44.6°F7.0°C 88% 0.7 mph NNE1.1 kmh NNE 3.8 mph6.1 kmh 30.33 in1027.1 mb 0.00 in0.0 mm 0.00 in/hr0.0 mm/hr 0.05 in1.3 mm
11:55 AM 48.0°F8.9°C 44.3°F6.8°C 87% 0.7 mph NNE1.1 kmh NNE 3.8 mph6.1 kmh 30.33 in1027.1 mb 0.00 in0.0 mm 0.00 in/hr0.0 mm/hr 0.05 in1.3 mm
11:50 AM 47.8°F8.8°C 44.2°F6.8°C 87% 0.7 mph N1.1 kmh N 3.8 mph6.1 kmh 30.33 in1027.1 mb 0.00 in0.0 mm 0.00 in/hr0.0 mm/hr 0.05 in1.3 mm
11:45 AM 47.8°F8.8°C 43.9°F6.6°C 86% Calm Calm 5.4 mph8.7 kmh 30.33 in1027.1 mb 0.00 in0.0 mm 0.00 in/hr0.0 mm/hr 0.05 in1.3 mm
11:40 AM 47.8°F8.8°C 43.6°F6.4°C 85% 0.7 mph NNE1.1 kmh NNE 6.9 mph11.1 kmh 30.33 in1027.1 mb 0.00 in0.0 mm 0.00 in/hr0.0 mm/hr 0.05 in1.3 mm
11:35 AM 47.8°F8.8°C 43.6°F6.4°C 85% 2.2 mph NE3.5 kmh NE 6.9 mph11.1 kmh 30.33 in1027.1 mb 0.01 in0.3 mm 0.00 in/hr0.0 mm/hr 0.05 in1.3 mm
11:30 AM 48.0°F8.9°C 43.7°F6.5°C 85% 1.6 mph NNE2.6 kmh NNE 11.4 mph18.3 kmh 30.33 in1027.1 mb 0.01 in0.3 mm 0.00 in/hr0.0 mm/hr 0.05 in1.3 mm
11:25 AM 48.0°F8.9°C 43.7°F6.5°C 85% 0.7 mph NNE1.1 kmh NNE 11.4 mph18.3 kmh 30.33 in1027.1 mb 0.01 in0.3 mm 0.00 in/hr0.0 mm/hr 0.05 in1.3 mm
11:20 AM 48.2°F9.0°C 43.6°F6.4°C 84% 0.7 mph NNE1.1 kmh NNE 3.8 mph6.1 kmh 30.34 in1027.4 mb 0.01 in0.3 mm 0.00 in/hr0.0 mm/hr 0.05 in1.3 mm
11:15 AM 48.2°F9.0°C 43.6°F6.4°C 84% Calm Calm 5.4 mph8.7 kmh 30.34 in1027.4 mb 0.01 in0.3 mm 0.00 in/hr0.0 mm/hr 0.05 in1.3 mm
11:10 AM 48.2°F9.0°C 43.6°F6.4°C 84% 1.6 mph N2.6 kmh N 5.4 mph8.7 kmh 30.34 in1027.4 mb 0.01 in0.3 mm 0.00 in/hr0.0 mm/hr 0.05 in1.3 mm
11:05 AM 48.2°F9.0°C 43.6°F6.4°C 84% 0.7 mph NE1.1 kmh NE 3.8 mph6.1 kmh 30.33 in1027.1 mb 0.01 in0.3 mm 0.00 in/hr0.0 mm/hr 0.05 in1.3 mm
11:00 AM 48.2°F9.0°C 43.9°F6.6°C 85% 0.7 mph NE1.1 kmh NE 3.8 mph6.1 kmh 30.34 in1027.4 mb 0.01 in0.3 mm 0.00 in/hr0.0 mm/hr 0.05 in1.3 mm
10:55 AM 48.2°F9.0°C 43.9°F6.6°C 85% 0.7 mph NNE1.1 kmh NNE 5.4 mph8.7 kmh 30.34 in1027.4 mb 0.01 in0.3 mm 0.00 in/hr0.0 mm/hr 0.05 in1.3 mm
10:50 AM 48.2°F9.0°C 43.6°F6.4°C 84% 0.7 mph N1.1 kmh N 5.4 mph8.7 kmh 30.34 in1027.4 mb 0.01 in0.3 mm 0.00 in/hr0.0 mm/hr 0.05 in1.3 mm
10:45 AM 48.2°F9.0°C 43.6°F6.4°C 84% 1.6 mph N2.6 kmh N 4.5 mph7.2 kmh 30.34 in1027.4 mb 0.01 in0.3 mm 0.00 in/hr0.0 mm/hr 0.05 in1.3 mm
10:40 AM 48.2°F9.0°C 43.6°F6.4°C 84% 3.1 mph NNE5.0 kmh NNE 4.5 mph7.2 kmh 30.34 in1027.4 mb 0.01 in0.3 mm 0.12 in/hr3.0 mm/hr 0.05 in1.3 mm
10:35 AM 48.2°F9.0°C 43.6°F6.4°C 84% 1.6 mph NE2.6 kmh NE 4.5 mph7.2 kmh 30.34 in1027.4 mb 0.00 in0.0 mm 0.00 in/hr0.0 mm/hr 0.04 in1.0 mm
10:30 AM 48.2°F9.0°C 43.6°F6.4°C 84% 0.7 mph NE1.1 kmh NE 5.4 mph8.7 kmh 30.34 in1027.4 mb 0.00 in0.0 mm 0.00 in/hr0.0 mm/hr 0.04 in1.0 mm
10:25 AM 48.2°F9.0°C 43.6°F6.4°C 84% 1.6 mph NNE2.6 kmh NNE 5.4 mph8.7 kmh 30.34 in1027.4 mb 0.00 in0.0 mm 0.00 in/hr0.0 mm/hr 0.04 in1.0 mm
10:20 AM 48.2°F9.0°C 43.6°F6.4°C 84% 1.6 mph NE2.6 kmh NE 5.4 mph8.7 kmh 30.34 in1027.4 mb 0.00 in0.0 mm 0.00 in/hr0.0 mm/hr 0.04 in1.0 mm
10:15 AM 48.0°F8.9°C 44.3°F6.8°C 87% 2.2 mph ENE3.5 kmh ENE 4.5 mph7.2 kmh 30.34 in1027.4 mb 0.00 in0.0 mm 0.00 in/hr0.0 mm/hr 0.04 in1.0 mm
10:10 AM 47.8°F8.8°C 44.5°F6.9°C 88% 1.6 mph NE2.6 kmh NE 5.4 mph8.7 kmh 30.34 in1027.4 mb 0.00 in0.0 mm 0.00 in/hr0.0 mm/hr 0.04 in1.0 mm
10:05 AM 47.8°F8.8°C 44.5°F6.9°C 88% Calm Calm 6.0 mph9.7 kmh 30.34 in1027.4 mb 0.00 in0.0 mm 0.00 in/hr0.0 mm/hr 0.04 in1.0 mm
10:00 AM 47.8°F8.8°C 45.1°F7.3°C 90% 3.8 mph NNE6.1 kmh NNE 6.0 mph9.7 kmh 30.34 in1027.4 mb 0.00 in0.0 mm 0.00 in/hr0.0 mm/hr 0.04 in1.0 mm
09:55 AM 47.7°F8.7°C 44.9°F7.2°C 90% 2.2 mph N3.5 kmh N 5.4 mph8.7 kmh 30.34 in1027.4 mb 0.00 in0.0 mm 0.00 in/hr0.0 mm/hr 0.04 in1.0 mm
09:50 AM 47.7°F8.7°C 45.2°F7.3°C 91% 3.1 mph N5.0 kmh N 6.9 mph11.1 kmh 30.34 in1027.4 mb 0.00 in0.0 mm 0.00 in/hr0.0 mm/hr 0.04 in1.0 mm
09:45 AM 47.5°F8.6°C 45.0°F7.2°C 91% 0.7 mph N1.1 kmh N 6.9 mph11.1 kmh 30.34 in1027.4 mb 0.00 in0.0 mm 0.00 in/hr0.0 mm/hr 0.04 in1.0 mm
09:40 AM 47.3°F8.5°C 44.8°F7.1°C 91% 3.8 mph N6.1 kmh N 9.2 mph14.8 kmh 30.34 in1027.4 mb 0.00 in0.0 mm 0.00 in/hr0.0 mm/hr 0.04 in1.0 mm
09:35 AM 47.1°F8.4°C 44.9°F7.2°C 92% 1.6 mph NNE2.6 kmh NNE 9.2 mph14.8 kmh 30.34 in1027.4 mb 0.00 in0.0 mm 0.00 in/hr0.0 mm/hr 0.04 in1.0 mm
09:30 AM 47.1°F8.4°C 44.9°F7.2°C 92% 0.7 mph N1.1 kmh N 4.5 mph7.2 kmh 30.34 in1027.4 mb 0.00 in0.0 mm 0.00 in/hr0.0 mm/hr 0.04 in1.0 mm
09:25 AM 46.9°F8.3°C 45.0°F7.2°C 93% 0.7 mph N1.1 kmh N 3.1 mph5.0 kmh 30.34 in1027.4 mb 0.00 in0.0 mm 0.00 in/hr0.0 mm/hr 0.04 in1.0 mm
09:20 AM 46.8°F8.2°C 44.8°F7.1°C 93% 1.6 mph NNE2.6 kmh NNE 5.4 mph8.7 kmh 30.34 in1027.4 mb 0.00 in0.0 mm 0.00 in/hr0.0 mm/hr 0.04 in1.0 mm
09:15 AM 46.8°F8.2°C 45.1°F7.3°C 94% 0.7 mph NNE1.1 kmh NNE 5.4 mph8.7 kmh 30.34 in1027.4 mb 0.00 in0.0 mm 0.00 in/hr0.0 mm/hr 0.04 in1.0 mm
09:10 AM 46.6°F8.1°C 45.2°F7.3°C 95% Calm Calm 5.4 mph8.7 kmh 30.34 in1027.4 mb 0.00 in0.0 mm 0.00 in/hr0.0 mm/hr 0.04 in1.0 mm
09:05 AM 46.4°F8.0°C 45.3°F7.4°C 96% 0.7 mph N1.1 kmh N 2.2 mph3.5 kmh 30.34 in1027.4 mb 0.00 in0.0 mm 0.00 in/hr0.0 mm/hr 0.04 in1.0 mm
09:00 AM 46.4°F8.0°C 45.3°F7.4°C 96% 0.7 mph N1.1 kmh N 3.8 mph6.1 kmh 30.33 in1027.1 mb 0.01 in0.3 mm 0.00 in/hr0.0 mm/hr 0.04 in1.0 mm
08:55 AM 46.2°F7.9°C 45.4°F7.4°C 97% Calm Calm 3.8 mph6.1 kmh 30.34 in1027.4 mb 0.01 in0.3 mm 0.00 in/hr0.0 mm/hr 0.04 in1.0 mm
08:50 AM 46.2°F7.9°C 45.4°F7.4°C 97% 0.7 mph NNE1.1 kmh NNE 3.1 mph5.0 kmh 30.33 in1027.1 mb 0.01 in0.3 mm 0.00 in/hr0.0 mm/hr 0.04 in1.0 mm
08:45 AM 46.0°F7.8°C 45.2°F7.3°C 97% 0.7 mph NNE1.1 kmh NNE 2.2 mph3.5 kmh 30.34 in1027.4 mb 0.01 in0.3 mm 0.00 in/hr0.0 mm/hr 0.04 in1.0 mm
08:40 AM 45.9°F7.7°C 45.1°F7.3°C 97% Calm Calm 3.1 mph5.0 kmh 30.34 in1027.4 mb 0.01 in0.3 mm 0.00 in/hr0.0 mm/hr 0.04 in1.0 mm
08:35 AM 45.9°F7.7°C 45.1°F7.3°C 97% 1.6 mph NNE2.6 kmh NNE 3.1 mph5.0 kmh 30.34 in1027.4 mb 0.01 in0.3 mm 0.00 in/hr0.0 mm/hr 0.04 in1.0 mm
08:30 AM 45.9°F7.7°C 45.1°F7.3°C 97% Calm Calm 3.8 mph6.1 kmh 30.34 in1027.4 mb 0.01 in0.3 mm 0.00 in/hr0.0 mm/hr 0.04 in1.0 mm
08:25 AM 45.9°F7.7°C 45.1°F7.3°C 97% 1.6 mph NE2.6 kmh NE 3.8 mph6.1 kmh 30.34 in1027.4 mb 0.01 in0.3 mm 0.00 in/hr0.0 mm/hr 0.04 in1.0 mm
08:20 AM 45.7°F7.6°C 44.9°F7.2°C 97% Calm Calm 3.1 mph5.0 kmh 30.34 in1027.4 mb 0.01 in0.3 mm 0.00 in/hr0.0 mm/hr 0.04 in1.0 mm
08:15 AM 45.7°F7.6°C 44.9°F7.2°C 97% 0.7 mph N1.1 kmh N 3.1 mph5.0 kmh 30.34 in1027.4 mb 0.02 in0.5 mm 0.00 in/hr0.0 mm/hr 0.04 in1.0 mm
08:10 AM 45.7°F7.6°C 44.9°F7.2°C 97% 0.7 mph N1.1 kmh N 3.1 mph5.0 kmh 30.35 in1027.8 mb 0.02 in0.5 mm 0.00 in/hr0.0 mm/hr 0.04 in1.0 mm
08:05 AM 45.7°F7.6°C 44.9°F7.2°C 97% Calm Calm 1.6 mph2.6 kmh 30.35 in1027.8 mb 0.02 in0.5 mm 0.12 in/hr3.0 mm/hr 0.04 in1.0 mm
08:00 AM 45.5°F7.5°C 44.7°F7.1°C 97% Calm Calm 1.6 mph2.6 kmh 30.35 in1027.8 mb 0.01 in0.3 mm 0.00 in/hr0.0 mm/hr 0.02 in0.5 mm
07:55 AM 45.5°F7.5°C 44.7°F7.1°C 97% Calm Calm 2.2 mph3.5 kmh 30.35 in1027.8 mb 0.01 in0.3 mm 0.00 in/hr0.0 mm/hr 0.02 in0.5 mm
07:50 AM 45.5°F7.5°C 44.7°F7.1°C 97% Calm Calm 2.2 mph3.5 kmh 30.35 in1027.8 mb 0.01 in0.3 mm 0.00 in/hr0.0 mm/hr 0.02 in0.5 mm
07:45 AM 45.5°F7.5°C 44.7°F7.1°C 97% Calm Calm 2.2 mph3.5 kmh 30.35 in1027.8 mb 0.01 in0.3 mm 0.00 in/hr0.0 mm/hr 0.02 in0.5 mm
07:40 AM 45.5°F7.5°C 44.7°F7.1°C 97% Calm Calm 2.2 mph3.5 kmh 30.34 in1027.4 mb 0.01 in0.3 mm 0.00 in/hr0.0 mm/hr 0.02 in0.5 mm
07:35 AM 45.5°F7.5°C 44.7°F7.1°C 97% Calm Calm 3.8 mph6.1 kmh 30.34 in1027.4 mb 0.01 in0.3 mm 0.00 in/hr0.0 mm/hr 0.02 in0.5 mm
07:30 AM 45.5°F7.5°C 44.7°F7.1°C 97% 0.7 mph NNE1.1 kmh NNE 3.8 mph6.1 kmh 30.34 in1027.4 mb 0.01 in0.3 mm 0.00 in/hr0.0 mm/hr 0.02 in0.5 mm
07:25 AM 45.5°F7.5°C 44.7°F7.1°C 97% 0.7 mph NE1.1 kmh NE 5.4 mph8.7 kmh 30.33 in1027.1 mb 0.01 in0.3 mm 0.00 in/hr0.0 mm/hr 0.02 in0.5 mm
07:20 AM 45.5°F7.5°C 44.7°F7.1°C 97% Calm Calm 5.4 mph8.7 kmh 30.34 in1027.4 mb 0.01 in0.3 mm 0.12 in/hr3.0 mm/hr 0.02 in0.5 mm
07:15 AM 45.3°F7.4°C 44.5°F6.9°C 97% Calm Calm 3.8 mph6.1 kmh 30.33 in1027.1 mb 0.00 in0.0 mm 0.00 in/hr0.0 mm/hr 0.01 in0.3 mm
07:10 AM 45.3°F7.4°C 44.5°F6.9°C 97% Calm Calm 5.4 mph8.7 kmh 30.33 in1027.1 mb 0.00 in0.0 mm 0.00 in/hr0.0 mm/hr 0.01 in0.3 mm
07:05 AM 45.3°F7.4°C 44.5°F6.9°C 97% 1.6 mph N2.6 kmh N 5.4 mph8.7 kmh 30.33 in1027.1 mb 0.00 in0.0 mm 0.00 in/hr0.0 mm/hr 0.01 in0.3 mm
07:00 AM 45.3°F7.4°C 44.5°F6.9°C 97% Calm Calm 4.5 mph7.2 kmh 30.33 in1027.1 mb 0.00 in0.0 mm 0.00 in/hr0.0 mm/hr 0.01 in0.3 mm
06:55 AM 45.3°F7.4°C 44.5°F6.9°C 97% Calm Calm 4.5 mph7.2 kmh 30.33 in1027.1 mb 0.00 in0.0 mm 0.00 in/hr0.0 mm/hr 0.01 in0.3 mm
06:50 AM 45.1°F7.3°C 44.3°F6.8°C 97% 0.7 mph N1.1 kmh N 6.0 mph9.7 kmh 30.33 in1027.1 mb 0.00 in0.0 mm 0.00 in/hr0.0 mm/hr 0.01 in0.3 mm
06:45 AM 45.1°F7.3°C 44.3°F6.8°C 97% 0.7 mph N1.1 kmh N 6.0 mph9.7 kmh 30.32 in1026.8 mb 0.00 in0.0 mm 0.00 in/hr0.0 mm/hr 0.01 in0.3 mm
06:40 AM 45.1°F7.3°C 44.3°F6.8°C 97% Calm Calm 2.2 mph3.5 kmh 30.33 in1027.1 mb 0.00 in0.0 mm 0.00 in/hr0.0 mm/hr 0.01 in0.3 mm
06:35 AM 45.1°F7.3°C 44.3°F6.8°C 97% Calm Calm 3.8 mph6.1 kmh 30.33 in1027.1 mb 0.00 in0.0 mm 0.00 in/hr0.0 mm/hr 0.01 in0.3 mm
06:30 AM 45.1°F7.3°C 44.3°F6.8°C 97% 0.7 mph NNE1.1 kmh NNE 4.5 mph7.2 kmh 30.33 in1027.1 mb 0.00 in0.0 mm 0.00 in/hr0.0 mm/hr 0.01 in0.3 mm
06:25 AM 45.1°F7.3°C 44.3°F6.8°C 97% Calm Calm 4.5 mph7.2 kmh 30.32 in1026.8 mb 0.00 in0.0 mm 0.00 in/hr0.0 mm/hr 0.01 in0.3 mm
06:20 AM 45.1°F7.3°C 44.3°F6.8°C 97% 2.2 mph N3.5 kmh N 4.5 mph7.2 kmh 30.32 in1026.8 mb 0.00 in0.0 mm 0.00 in/hr0.0 mm/hr 0.01 in0.3 mm
06:15 AM 45.1°F7.3°C 44.3°F6.8°C 97% 0.7 mph N1.1 kmh N 2.2 mph3.5 kmh 30.32 in1026.8 mb 0.01 in0.3 mm 0.00 in/hr0.0 mm/hr 0.01 in0.3 mm
06:10 AM 45.1°F7.3°C 44.3°F6.8°C 97% Calm Calm 2.2 mph3.5 kmh 30.32 in1026.8 mb 0.01 in0.3 mm 0.00 in/hr0.0 mm/hr 0.01 in0.3 mm
06:05 AM 45.1°F7.3°C 44.3°F6.8°C 97% Calm Calm 3.1 mph5.0 kmh 30.32 in1026.8 mb 0.01 in0.3 mm 0.00 in/hr0.0 mm/hr 0.01 in0.3 mm
06:00 AM 45.1°F7.3°C 44.3°F6.8°C 97% Calm Calm 3.1 mph5.0 kmh 30.32 in1026.8 mb 0.01 in0.3 mm 0.00 in/hr0.0 mm/hr 0.01 in0.3 mm
05:55 AM 45.1°F7.3°C 44.3°F6.8°C 97% 1.6 mph NNW2.6 kmh NNW 3.8 mph6.1 kmh 30.32 in1026.8 mb 0.01 in0.3 mm 0.00 in/hr0.0 mm/hr 0.01 in0.3 mm
05:50 AM 45.1°F7.3°C 44.3°F6.8°C 97% Calm Calm 4.5 mph7.2 kmh 30.32 in1026.8 mb 0.01 in0.3 mm 0.00 in/hr0.0 mm/hr 0.01 in0.3 mm
05:45 AM 45.1°F7.3°C 44.3°F6.8°C 97% 2.2 mph N3.5 kmh N 4.5 mph7.2 kmh 30.32 in1026.8 mb 0.01 in0.3 mm 0.00 in/hr0.0 mm/hr 0.01 in0.3 mm
05:40 AM 45.1°F7.3°C 44.3°F6.8°C 97% 1.6 mph N2.6 kmh N 3.1 mph5.0 kmh 30.31 in1026.4 mb 0.01 in0.3 mm 0.00 in/hr0.0 mm/hr 0.01 in0.3 mm
05:35 AM 45.0°F7.2°C 44.2°F6.8°C 97% Calm Calm 2.2 mph3.5 kmh 30.31 in1026.4 mb 0.01 in0.3 mm 0.00 in/hr0.0 mm/hr 0.01 in0.3 mm
05:30 AM 45.0°F7.2°C 44.2°F6.8°C 97% Calm Calm 1.6 mph2.6 kmh 30.31 in1026.4 mb 0.01 in0.3 mm 0.00 in/hr0.0 mm/hr 0.01 in0.3 mm
05:25 AM 45.0°F7.2°C 44.2°F6.8°C 97% Calm Calm 1.6 mph2.6 kmh 30.30 in1026.1 mb 0.01 in0.3 mm 0.00 in/hr0.0 mm/hr 0.01 in0.3 mm
05:20 AM 45.0°F7.2°C 44.2°F6.8°C 97% Calm Calm 1.6 mph2.6 kmh 30.31 in1026.4 mb 0.01 in0.3 mm 0.12 in/hr3.0 mm/hr 0.01 in0.3 mm
05:15 AM 45.0°F7.2°C 44.2°F6.8°C 97% Calm Calm 1.6 mph2.6 kmh 30.31 in1026.4 mb 0.00 in0.0 mm 0.00 in/hr0.0 mm/hr 0.00 in0.0 mm
05:10 AM 45.1°F7.3°C 44.3°F6.8°C 97% Calm Calm 4.5 mph7.2 kmh 30.31 in1026.4 mb 0.00 in0.0 mm 0.00 in/hr0.0 mm/hr 0.00 in0.0 mm
05:05 AM 45.1°F7.3°C 44.3°F6.8°C 97% 0.7 mph N1.1 kmh N 4.5 mph7.2 kmh 30.30 in1026.1 mb 0.00 in0.0 mm 0.00 in/hr0.0 mm/hr 0.00 in0.0 mm
05:00 AM 45.1°F7.3°C 44.3°F6.8°C 97% 2.2 mph N3.5 kmh N 3.8 mph6.1 kmh 30.31 in1026.4 mb 0.00 in0.0 mm 0.00 in/hr0.0 mm/hr 0.00 in0.0 mm
04:55 AM 45.1°F7.3°C 44.3°F6.8°C 97% Calm Calm 1.6 mph2.6 kmh 30.31 in1026.4 mb 0.00 in0.0 mm 0.00 in/hr0.0 mm/hr 0.00 in0.0 mm
04:50 AM 45.1°F7.3°C 44.3°F6.8°C 97% Calm Calm 5.4 mph8.7 kmh 30.31 in1026.4 mb 0.00 in0.0 mm 0.00 in/hr0.0 mm/hr 0.00 in0.0 mm
04:45 AM 45.3°F7.4°C 44.5°F6.9°C 97% Calm Calm 5.4 mph8.7 kmh 30.31 in1026.4 mb 0.00 in0.0 mm 0.00 in/hr0.0 mm/hr 0.00 in0.0 mm
04:40 AM 45.3°F7.4°C 44.5°F6.9°C 97% Calm Calm 4.5 mph7.2 kmh 30.31 in1026.4 mb 0.00 in0.0 mm 0.00 in/hr0.0 mm/hr 0.00 in0.0 mm
04:35 AM 45.1°F7.3°C 44.3°F6.8°C 97% 0.7 mph N1.1 kmh N 3.8 mph6.1 kmh 30.32 in1026.8 mb 0.00 in0.0 mm 0.00 in/hr0.0 mm/hr 0.00 in0.0 mm
04:30 AM 45.1°F7.3°C 44.3°F6.8°C 97% 0.7 mph N1.1 kmh N 4.5 mph7.2 kmh 30.32 in1026.8 mb 0.00 in0.0 mm 0.00 in/hr0.0 mm/hr 0.00 in0.0 mm
04:25 AM 45.1°F7.3°C 44.3°F6.8°C 97% Calm Calm 4.5 mph7.2 kmh 30.32 in1026.8 mb 0.00 in0.0 mm 0.00 in/hr0.0 mm/hr 0.00 in0.0 mm
04:20 AM 45.1°F7.3°C 44.1°F6.7°C 96% Calm Calm 3.8 mph6.1 kmh 30.32 in1026.8 mb 0.00 in0.0 mm 0.00 in/hr0.0 mm/hr 0.00 in0.0 mm
04:15 AM 45.1°F7.3°C 44.1°F6.7°C 96% 2.2 mph N3.5 kmh N 3.8 mph6.1 kmh 30.32 in1026.8 mb 0.00 in0.0 mm 0.00 in/hr0.0 mm/hr 0.00 in0.0 mm
04:10 AM 45.1°F7.3°C 44.1°F6.7°C 96% Calm Calm 4.5 mph7.2 kmh 30.32 in1026.8 mb 0.00 in0.0 mm 0.00 in/hr0.0 mm/hr 0.00 in0.0 mm
04:05 AM 45.1°F7.3°C 43.8°F6.6°C 95% 2.2 mph N3.5 kmh N 4.5 mph7.2 kmh 30.31 in1026.4 mb 0.00 in0.0 mm 0.00 in/hr0.0 mm/hr 0.00 in0.0 mm
04:00 AM 45.1°F7.3°C 43.8°F6.6°C 95% 2.2 mph N3.5 kmh N 4.5 mph7.2 kmh 30.31 in1026.4 mb 0.00 in0.0 mm 0.00 in/hr0.0 mm/hr 0.00 in0.0 mm
03:55 AM 45.1°F7.3°C 43.8°F6.6°C 95% 1.6 mph N2.6 kmh N 3.1 mph5.0 kmh 30.32 in1026.8 mb 0.00 in0.0 mm 0.00 in/hr0.0 mm/hr 0.00 in0.0 mm
03:50 AM 45.1°F7.3°C 43.8°F6.6°C 95% 0.7 mph N1.1 kmh N 4.5 mph7.2 kmh 30.32 in1026.8 mb 0.00 in0.0 mm 0.00 in/hr0.0 mm/hr 0.00 in0.0 mm
03:45 AM 45.1°F7.3°C 43.8°F6.6°C 95% 2.2 mph N3.5 kmh N 4.5 mph7.2 kmh 30.32 in1026.8 mb 0.00 in0.0 mm 0.00 in/hr0.0 mm/hr 0.00 in0.0 mm
03:40 AM 45.1°F7.3°C 43.8°F6.6°C 95% Calm Calm 3.1 mph5.0 kmh 30.31 in1026.4 mb 0.00 in0.0 mm 0.00 in/hr0.0 mm/hr 0.00 in0.0 mm
03:35 AM 45.1°F7.3°C 43.8°F6.6°C 95% Calm Calm 3.8 mph6.1 kmh 30.31 in1026.4 mb 0.00 in0.0 mm 0.00 in/hr0.0 mm/hr 0.00 in0.0 mm
03:30 AM 45.0°F7.2°C 43.6°F6.4°C 95% 2.2 mph NNW3.5 kmh NNW 3.8 mph6.1 kmh 30.31 in1026.4 mb 0.00 in0.0 mm 0.00 in/hr0.0 mm/hr 0.00 in0.0 mm
03:25 AM 45.0°F7.2°C 43.6°F6.4°C 95% 1.6 mph NE2.6 kmh NE 4.5 mph7.2 kmh 30.32 in1026.8 mb 0.00 in0.0 mm 0.00 in/hr0.0 mm/hr 0.00 in0.0 mm
03:20 AM 45.0°F7.2°C 43.6°F6.4°C 95% 1.6 mph N2.6 kmh N 4.5 mph7.2 kmh 30.32 in1026.8 mb 0.00 in0.0 mm 0.00 in/hr0.0 mm/hr 0.00 in0.0 mm
03:15 AM 45.0°F7.2°C 43.6°F6.4°C 95% Calm Calm 3.8 mph6.1 kmh 30.32 in1026.8 mb 0.00 in0.0 mm 0.00 in/hr0.0 mm/hr 0.00 in0.0 mm
03:10 AM 45.0°F7.2°C 43.6°F6.4°C 95% Calm Calm 3.8 mph6.1 kmh 30.32 in1026.8 mb 0.00 in0.0 mm 0.00 in/hr0.0 mm/hr 0.00 in0.0 mm
03:05 AM 45.0°F7.2°C 43.6°F6.4°C 95% 0.7 mph N1.1 kmh N 3.1 mph5.0 kmh 30.32 in1026.8 mb 0.00 in0.0 mm 0.00 in/hr0.0 mm/hr 0.00 in0.0 mm
03:00 AM 44.8°F7.1°C 43.4°F6.3°C 95% Calm Calm 3.1 mph5.0 kmh 30.32 in1026.8 mb 0.00 in0.0 mm 0.00 in/hr0.0 mm/hr 0.00 in0.0 mm
02:55 AM 44.8°F7.1°C 43.4°F6.3°C 95% 0.7 mph N1.1 kmh N 4.5 mph7.2 kmh 30.32 in1026.8 mb 0.00 in0.0 mm 0.00 in/hr0.0 mm/hr 0.00 in0.0 mm
02:50 AM 44.8°F7.1°C 43.2°F6.2°C 94% 3.1 mph N5.0 kmh N 4.5 mph7.2 kmh 30.32 in1026.8 mb 0.00 in0.0 mm 0.00 in/hr0.0 mm/hr 0.00 in0.0 mm
02:45 AM 44.8°F7.1°C 43.2°F6.2°C 94% 0.7 mph NNW1.1 kmh NNW 3.8 mph6.1 kmh 30.32 in1026.8 mb 0.00 in0.0 mm 0.00 in/hr0.0 mm/hr 0.00 in0.0 mm
02:40 AM 44.8°F7.1°C 43.2°F6.2°C 94% 2.2 mph NNW3.5 kmh NNW 3.8 mph6.1 kmh 30.32 in1026.8 mb 0.00 in0.0 mm 0.00 in/hr0.0 mm/hr 0.00 in0.0 mm
02:35 AM 44.6°F7.0°C 43.0°F6.1°C 94% 0.7 mph N1.1 kmh N 3.1 mph5.0 kmh 30.32 in1026.8 mb 0.00 in0.0 mm 0.00 in/hr0.0 mm/hr 0.00 in0.0 mm
02:30 AM 44.6°F7.0°C 43.0°F6.1°C 94% 0.7 mph N1.1 kmh N 4.5 mph7.2 kmh 30.32 in1026.8 mb 0.00 in0.0 mm 0.00 in/hr0.0 mm/hr 0.00 in0.0 mm
02:25 AM 44.6°F7.0°C 43.0°F6.1°C 94% 0.7 mph N1.1 kmh N 4.5 mph7.2 kmh 30.32 in1026.8 mb 0.00 in0.0 mm 0.00 in/hr0.0 mm/hr 0.00 in0.0 mm
02:20 AM 44.6°F7.0°C 43.0°F6.1°C 94% 1.6 mph NNW2.6 kmh NNW 5.4 mph8.7 kmh 30.33 in1027.1 mb 0.00 in0.0 mm 0.00 in/hr0.0 mm/hr 0.00 in0.0 mm
02:15 AM 44.6°F7.0°C 43.0°F6.1°C 94% 0.7 mph NNW1.1 kmh NNW 5.4 mph8.7 kmh 30.34 in1027.4 mb 0.00 in0.0 mm 0.00 in/hr0.0 mm/hr 0.00 in0.0 mm
02:10 AM 44.6°F7.0°C 43.3°F6.3°C 95% 1.6 mph NNW2.6 kmh NNW 3.8 mph6.1 kmh 30.34 in1027.4 mb 0.00 in0.0 mm 0.00 in/hr0.0 mm/hr 0.00 in0.0 mm
02:05 AM 44.6°F7.0°C 43.3°F6.3°C 95% Calm Calm 4.5 mph7.2 kmh 30.34 in1027.4 mb 0.00 in0.0 mm 0.00 in/hr0.0 mm/hr 0.00 in0.0 mm
02:00 AM 44.6°F7.0°C 43.3°F6.3°C 95% 2.2 mph N3.5 kmh N 4.5 mph7.2 kmh 30.34 in1027.4 mb 0.00 in0.0 mm 0.00 in/hr0.0 mm/hr 0.00 in0.0 mm
01:55 AM 44.6°F7.0°C 43.3°F6.3°C 95% Calm Calm 4.5 mph7.2 kmh 30.35 in1027.8 mb 0.00 in0.0 mm 0.00 in/hr0.0 mm/hr 0.00 in0.0 mm
01:50 AM 44.6°F7.0°C 43.3°F6.3°C 95% Calm Calm 4.5 mph7.2 kmh 30.35 in1027.8 mb 0.00 in0.0 mm 0.00 in/hr0.0 mm/hr 0.00 in0.0 mm
01:45 AM 44.6°F7.0°C 43.3°F6.3°C 95% Calm Calm 1.6 mph2.6 kmh 30.36 in1028.1 mb 0.00 in0.0 mm 0.00 in/hr0.0 mm/hr 0.00 in0.0 mm
01:40 AM 44.6°F7.0°C 43.3°F6.3°C 95% Calm Calm 3.1 mph5.0 kmh 30.36 in1028.1 mb 0.00 in0.0 mm 0.00 in/hr0.0 mm/hr 0.00 in0.0 mm
01:35 AM 44.6°F7.0°C 43.3°F6.3°C 95% Calm Calm 3.1 mph5.0 kmh 30.36 in1028.1 mb 0.00 in0.0 mm 0.00 in/hr0.0 mm/hr 0.00 in0.0 mm
01:30 AM 44.6°F7.0°C 43.0°F6.1°C 94% 1.6 mph N2.6 kmh N 3.1 mph5.0 kmh 30.37 in1028.4 mb 0.00 in0.0 mm 0.00 in/hr0.0 mm/hr 0.00 in0.0 mm
01:25 AM 44.6°F7.0°C 43.0°F6.1°C 94% Calm Calm 2.2 mph3.5 kmh 30.38 in1028.8 mb 0.00 in0.0 mm 0.00 in/hr0.0 mm/hr 0.00 in0.0 mm
01:20 AM 44.6°F7.0°C 43.0°F6.1°C 94% 0.7 mph NNE1.1 kmh NNE 2.2 mph3.5 kmh 30.38 in1028.8 mb 0.00 in0.0 mm 0.00 in/hr0.0 mm/hr 0.00 in0.0 mm
01:15 AM 44.6°F7.0°C 43.0°F6.1°C 94% 0.7 mph NE1.1 kmh NE 1.6 mph2.6 kmh 30.38 in1028.8 mb 0.00 in0.0 mm 0.00 in/hr0.0 mm/hr 0.00 in0.0 mm
01:10 AM 44.8°F7.1°C 43.2°F6.2°C 94% 0.7 mph N1.1 kmh N 3.1 mph5.0 kmh 30.38 in1028.8 mb 0.00 in0.0 mm 0.00 in/hr0.0 mm/hr 0.00 in0.0 mm
01:05 AM 44.8°F7.1°C 43.2°F6.2°C 94% 1.6 mph NNW2.6 kmh NNW 3.1 mph5.0 kmh 30.38 in1028.8 mb 0.00 in0.0 mm 0.00 in/hr0.0 mm/hr 0.00 in0.0 mm
01:00 AM 44.8°F7.1°C 43.2°F6.2°C 94% 0.7 mph N1.1 kmh N 2.2 mph3.5 kmh 30.38 in1028.8 mb 0.00 in0.0 mm 0.00 in/hr0.0 mm/hr 0.00 in0.0 mm
12:55 AM 44.8°F7.1°C 43.2°F6.2°C 94% 0.7 mph N1.1 kmh N 2.2 mph3.5 kmh 30.38 in1028.8 mb 0.00 in0.0 mm 0.00 in/hr0.0 mm/hr 0.00 in0.0 mm
12:50 AM 44.8°F7.1°C 43.2°F6.2°C 94% 1.6 mph N2.6 kmh N 2.2 mph3.5 kmh 30.39 in1029.1 mb 0.00 in0.0 mm 0.00 in/hr0.0 mm/hr 0.00 in0.0 mm
12:45 AM 44.8°F7.1°C 43.2°F6.2°C 94% Calm Calm 2.2 mph3.5 kmh 30.39 in1029.1 mb 0.00 in0.0 mm 0.00 in/hr0.0 mm/hr 0.00 in0.0 mm
12:40 AM 44.8°F7.1°C 43.2°F6.2°C 94% Calm Calm 2.2 mph3.5 kmh 30.39 in1029.1 mb 0.00 in0.0 mm 0.00 in/hr0.0 mm/hr 0.00 in0.0 mm
12:35 AM 44.8°F7.1°C 43.2°F6.2°C 94% 1.6 mph N2.6 kmh N 2.2 mph3.5 kmh 30.39 in1029.1 mb 0.00 in0.0 mm 0.00 in/hr0.0 mm/hr 0.00 in0.0 mm
12:30 AM 44.8°F7.1°C 43.2°F6.2°C 94% Calm Calm 3.1 mph5.0 kmh 30.40 in1029.5 mb 0.00 in0.0 mm 0.00 in/hr0.0 mm/hr 0.00 in0.0 mm
12:25 AM 44.8°F7.1°C 43.2°F6.2°C 94% Calm Calm 3.1 mph5.0 kmh 30.40 in1029.5 mb 0.00 in0.0 mm 0.00 in/hr0.0 mm/hr 0.00 in0.0 mm
12:20 AM 44.8°F7.1°C 43.2°F6.2°C 94% 1.6 mph N2.6 kmh N 3.1 mph5.0 kmh 30.40 in1029.5 mb 0.00 in0.0 mm 0.00 in/hr0.0 mm/hr 0.00 in0.0 mm
12:15 AM 44.8°F7.1°C 43.2°F6.2°C 94% Calm Calm 2.2 mph3.5 kmh 30.40 in1029.5 mb 0.00 in0.0 mm 0.00 in/hr0.0 mm/hr 0.00 in0.0 mm
12:10 AM 44.8°F7.1°C 43.2°F6.2°C 94% 0.7 mph E1.1 kmh E 2.2 mph3.5 kmh 30.39 in1029.1 mb 0.00 in0.0 mm 0.00 in/hr0.0 mm/hr 0.00 in0.0 mm
12:05 AM 44.8°F7.1°C 43.2°F6.2°C 94% Calm Calm 2.2 mph3.5 kmh 30.39 in1029.1 mb 0.00 in0.0 mm 0.00 in/hr0.0 mm/hr 0.00 in0.0 mm
12:00 AM 44.8°F7.1°C 43.2°F6.2°C 94% 0.7 mph E1.1 kmh E 3.1 mph5.0 kmh 30.40 in1029.5 mb 0.00 in0.0 mm 0.00 in/hr0.0 mm/hr 0.00 in0.0 mm